createdAt,value
2018-06-09T00:00:16.519Z,17.43
2018-06-09T00:02:46.156Z,16.17
2018-06-09T00:05:15.803Z,13.87
2018-06-09T00:07:45.475Z,16.23
2018-06-09T00:10:15.116Z,19.87
2018-06-09T00:12:44.704Z,13.93
2018-06-09T00:15:14.285Z,20.77
2018-06-09T00:17:50.302Z,15.80
2018-06-09T00:20:19.941Z,14.53
2018-06-09T00:22:49.604Z,15.27
2018-06-09T00:25:19.232Z,14.27
2018-06-09T00:27:48.875Z,18.03
2018-06-09T00:30:18.555Z,16.63
2018-06-09T00:32:48.151Z,13.63
2018-06-09T00:35:17.729Z,15.77
2018-06-09T00:37:47.208Z,15.17
2018-06-09T00:40:16.888Z,13.57
2018-06-09T00:42:46.552Z,14.57
2018-06-09T00:45:16.180Z,16.53
2018-06-09T00:47:45.748Z,12.10
2018-06-09T00:50:15.370Z,13.70
2018-06-09T00:52:45.018Z,18.57
2018-06-09T00:55:15.600Z,15.47
2018-06-09T00:57:45.242Z,16.20
2018-06-09T01:00:15.084Z,14.30
2018-06-09T01:02:44.716Z,22.73
2018-06-09T01:05:14.372Z,17.67
2018-06-09T01:07:43.931Z,16.87
2018-06-09T01:10:13.695Z,19.13
2018-06-09T01:12:43.398Z,21.90
2018-06-09T01:15:13.114Z,16.33
2018-06-09T01:17:42.780Z,22.37
2018-06-09T01:20:12.143Z,20.37
2018-06-09T01:22:41.786Z,16.80
2018-06-09T01:25:11.399Z,16.43
2018-06-09T01:27:41.116Z,19.13
2018-06-09T01:30:10.457Z,15.57
2018-06-09T01:32:40.145Z,15.30
2018-06-09T01:35:09.805Z,15.83
2018-06-09T01:37:39.633Z,16.73
2018-06-09T01:40:09.288Z,15.27
2018-06-09T01:42:41.865Z,13.07
2018-06-09T01:45:11.460Z,13.30
2018-06-09T01:47:41.058Z,15.90
2018-06-09T01:50:10.612Z,14.37
2018-06-09T01:52:40.269Z,16.17
2018-06-09T01:55:09.919Z,15.23
2018-06-09T01:57:39.535Z,14.60
2018-06-09T02:00:09.116Z,14.90
2018-06-09T02:02:41.511Z,16.43
2018-06-09T02:05:11.112Z,17.47
2018-06-09T02:07:40.672Z,18.03
2018-06-09T02:10:10.295Z,17.00
2018-06-09T02:12:39.927Z,13.47
2018-06-09T02:15:09.577Z,17.50
2018-06-09T02:17:39.156Z,17.67
2018-06-09T02:20:08.752Z,19.17
2018-06-09T02:22:38.396Z,20.57
2018-06-09T02:25:08.399Z,18.20
2018-06-09T02:27:37.987Z,18.13
2018-06-09T02:30:08.034Z,21.03
2018-06-09T02:32:37.578Z,18.00
2018-06-09T02:35:07.544Z,22.17
2018-06-09T02:37:37.103Z,20.03
2018-06-09T02:40:07.349Z,21.00
2018-06-09T02:42:36.972Z,15.90
2018-06-09T02:45:07.156Z,19.10
2018-06-09T02:47:36.879Z,17.50
2018-06-09T02:50:06.785Z,25.00
2018-06-09T02:52:36.379Z,21.67
2018-06-09T02:55:06.078Z,16.63
2018-06-09T02:57:35.644Z,18.60
2018-06-09T03:00:05.717Z,17.43
2018-06-09T03:02:35.297Z,18.37
2018-06-09T03:05:04.907Z,18.40
2018-06-09T03:07:34.536Z,16.93
2018-06-09T03:10:04.117Z,17.57
2018-06-09T03:12:33.710Z,19.40
2018-06-09T03:15:03.350Z,20.13
2018-06-09T03:17:32.891Z,17.90
2018-06-09T03:20:02.475Z,18.47
2018-06-09T03:22:32.020Z,20.13
2018-06-09T03:25:01.618Z,18.93
2018-06-09T03:27:31.150Z,15.33
2018-06-09T03:30:00.745Z,20.27
2018-06-09T03:32:30.386Z,16.73
2018-06-09T03:34:59.897Z,18.17
2018-06-09T03:37:29.525Z,17.40
2018-06-09T03:39:59.102Z,17.63
2018-06-09T03:42:28.691Z,15.60
2018-06-09T03:44:58.254Z,17.33
2018-06-09T03:47:27.833Z,17.83
2018-06-09T03:49:57.480Z,18.07
2018-06-09T03:52:27.091Z,16.10
2018-06-09T03:54:56.630Z,17.60
2018-06-09T03:57:26.200Z,17.23
2018-06-09T03:59:55.788Z,17.43
2018-06-09T04:02:25.342Z,17.37
2018-06-09T04:04:54.880Z,16.77
2018-06-09T04:07:24.638Z,15.63
2018-06-09T04:09:54.207Z,17.63
2018-06-09T04:12:23.853Z,18.77
2018-06-09T04:14:53.464Z,15.20
2018-06-09T04:17:23.312Z,20.70
2018-06-09T04:19:52.900Z,15.70
2018-06-09T04:22:22.509Z,16.80
2018-06-09T04:24:52.135Z,17.20
2018-06-09T04:27:21.716Z,15.63
2018-06-09T04:29:51.338Z,13.33
2018-06-09T04:32:22.085Z,15.70
2018-06-09T04:34:51.654Z,15.90
2018-06-09T04:37:21.173Z,17.83
2018-06-09T04:39:50.809Z,20.53
2018-06-09T04:42:20.055Z,16.10
2018-06-09T04:44:49.704Z,17.30
2018-06-09T04:47:19.651Z,15.63
2018-06-09T04:49:49.276Z,17.83
2018-06-09T04:52:19.276Z,16.90
2018-06-09T04:54:48.920Z,15.13
2018-06-09T04:57:18.951Z,14.83
2018-06-09T04:59:48.589Z,15.67
2018-06-09T05:02:18.522Z,14.70
2018-06-09T05:04:48.168Z,15.50
2018-06-09T05:07:18.000Z,16.23
2018-06-09T05:09:48.776Z,16.40
2018-06-09T05:12:19.387Z,14.37
2018-06-09T05:14:49.022Z,18.17
2018-06-09T05:17:18.789Z,17.43
2018-06-09T05:19:48.488Z,15.27
2018-06-09T05:22:18.428Z,18.77
2018-06-09T05:24:48.015Z,17.13
2018-06-09T05:27:17.646Z,16.37
2018-06-09T05:29:47.253Z,15.90
2018-06-09T05:32:16.865Z,16.40
2018-06-09T05:34:46.427Z,15.57
2018-06-09T05:37:15.944Z,13.40
2018-06-09T05:39:45.650Z,11.07
2018-06-09T05:42:15.207Z,13.43
2018-06-09T05:44:44.757Z,14.30
2018-06-09T05:47:14.322Z,13.13
2018-06-09T05:49:43.906Z,12.93
2018-06-09T05:52:13.557Z,10.47
2018-06-09T05:54:43.188Z,10.93
2018-06-09T05:57:12.840Z,11.43
2018-06-09T05:59:42.577Z,12.07
2018-06-09T06:02:12.217Z,12.15
2018-06-09T06:04:41.772Z,13.60
2018-06-09T06:07:11.350Z,10.43
2018-06-09T06:09:40.874Z,12.45
2018-06-09T06:12:10.436Z,13.70
2018-06-09T06:14:39.985Z,13.47
2018-06-09T06:17:09.689Z,12.13
2018-06-09T06:19:39.326Z,11.73
2018-06-09T06:22:08.887Z,11.00
2018-06-09T06:24:38.452Z,13.50
2018-06-09T06:27:08.056Z,12.73
2018-06-09T06:29:37.706Z,11.83
2018-06-09T06:32:07.360Z,14.57
2018-06-09T06:34:37.109Z,11.40
2018-06-09T06:37:06.733Z,14.27
2018-06-09T06:39:36.307Z,12.47
2018-06-09T06:42:05.896Z,19.67
2018-06-09T06:44:35.553Z,11.73
2018-06-09T06:47:05.522Z,14.27
2018-06-09T06:49:35.315Z,14.10
2018-06-09T06:52:05.019Z,13.70
2018-06-09T06:54:34.681Z,11.38
2018-06-09T06:57:04.304Z,11.65
2018-06-09T06:59:34.023Z,14.93
2018-06-09T07:02:03.914Z,11.15
2018-06-09T07:04:33.471Z,12.35
2018-06-09T07:07:03.070Z,10.58
2018-06-09T07:09:32.652Z,11.45
2018-06-09T07:12:02.261Z,11.97
2018-06-09T07:14:32.038Z,12.63
2018-06-09T07:17:01.691Z,13.70
2018-06-09T07:19:31.696Z,13.40
2018-06-09T07:22:01.441Z,13.70
2018-06-09T07:24:31.383Z,11.63
2018-06-09T07:27:00.988Z,15.97
2018-06-09T07:29:30.974Z,14.53
2018-06-09T07:32:00.612Z,13.50
2018-06-09T07:34:30.704Z,14.33
2018-06-09T07:37:00.244Z,14.17
2018-06-09T07:39:30.281Z,13.63
2018-06-09T07:41:59.858Z,18.60
2018-06-09T07:44:29.751Z,13.30
2018-06-09T07:46:59.310Z,12.90
2018-06-09T07:49:28.967Z,13.50
2018-06-09T07:51:58.676Z,15.93
2018-06-09T07:54:28.365Z,14.87
2018-06-09T07:56:58.084Z,14.40
2018-06-09T07:59:28.269Z,14.13
2018-06-09T08:01:57.898Z,12.63
2018-06-09T08:04:27.565Z,16.33
2018-06-09T08:06:57.303Z,16.40
2018-06-09T08:09:26.823Z,15.63
2018-06-09T08:11:56.583Z,15.73
2018-06-09T08:14:26.475Z,13.37
2018-06-09T08:16:56.042Z,13.10
2018-06-09T08:19:25.714Z,18.60
2018-06-09T08:21:55.422Z,17.60
2018-06-09T08:24:25.150Z,12.30
2018-06-09T08:26:54.729Z,16.90
2018-06-09T08:29:24.369Z,14.07
2018-06-09T08:31:54.008Z,15.00
2018-06-09T08:34:23.566Z,11.93
2018-06-09T08:36:53.202Z,13.20
2018-06-09T08:39:22.977Z,12.90
2018-06-09T08:41:53.316Z,12.53
2018-06-09T08:44:22.964Z,12.58
2018-06-09T08:46:52.626Z,14.33
2018-06-09T08:49:22.284Z,15.32
2018-06-09T08:51:51.872Z,12.53
2018-06-09T08:54:21.474Z,13.48
2018-06-09T08:56:51.113Z,15.53
2018-06-09T08:59:20.736Z,12.93
2018-06-09T09:01:50.360Z,14.58
2018-06-09T09:04:19.997Z,14.20
2018-06-09T09:06:49.252Z,14.18
2018-06-09T09:09:18.896Z,13.78
2018-06-09T09:11:48.507Z,14.73
2018-06-09T09:14:17.821Z,12.68
2018-06-09T09:16:47.415Z,15.45
2018-06-09T09:19:17.153Z,13.20
2018-06-09T09:21:46.865Z,14.58
2018-06-09T09:24:16.553Z,15.88
2018-06-09T09:26:45.857Z,13.95
2018-06-09T09:29:15.667Z,14.87
2018-06-09T09:31:45.596Z,17.48
2018-06-09T09:34:15.339Z,13.13
2018-06-09T09:36:44.959Z,13.13
2018-06-09T09:39:14.613Z,14.38
2018-06-09T09:41:44.259Z,18.35
2018-06-09T09:44:13.898Z,13.50
2018-06-09T09:46:43.975Z,14.63
2018-06-09T09:49:13.594Z,16.82
2018-06-09T09:51:43.809Z,16.97
2018-06-09T09:54:13.491Z,13.28
2018-06-09T09:56:43.679Z,13.45
2018-06-09T09:59:13.312Z,14.98
2018-06-09T10:01:43.073Z,14.15
2018-06-09T10:04:13.134Z,13.28
2018-06-09T10:06:42.929Z,14.10
2018-06-09T10:09:12.569Z,13.90
2018-06-09T10:11:42.443Z,12.93
2018-06-09T10:14:12.117Z,13.70
2018-06-09T10:16:42.481Z,12.65
2018-06-09T10:19:12.136Z,15.18
2018-06-09T10:21:41.829Z,12.20
2018-06-09T10:24:11.417Z,12.25
2018-06-09T10:26:41.065Z,11.63
2018-06-09T10:29:10.683Z,14.23
2018-06-09T10:31:40.544Z,13.88
2018-06-09T10:34:10.148Z,12.75
2018-06-09T10:36:39.818Z,12.58
2018-06-09T10:39:09.777Z,12.35
2018-06-09T10:41:39.491Z,11.65
2018-06-09T10:44:09.195Z,12.82
2018-06-09T10:46:38.856Z,13.18
2018-06-09T10:49:08.499Z,14.33
2018-06-09T10:51:38.134Z,13.78
2018-06-09T10:54:07.809Z,12.47
2018-06-09T10:56:37.428Z,13.10
2018-06-09T10:59:07.107Z,13.95
2018-06-09T11:01:36.632Z,12.50
2018-06-09T11:04:06.343Z,14.35
2018-06-09T11:06:36.113Z,13.15
2018-06-09T11:09:07.864Z,12.55
2018-06-09T11:11:37.635Z,14.68
2018-06-09T11:14:07.283Z,11.85
2018-06-09T11:16:36.856Z,10.72
2018-06-09T11:19:06.853Z,12.05
2018-06-09T11:21:36.542Z,14.78
2018-06-09T11:24:06.272Z,15.15
2018-06-09T11:26:35.901Z,13.17
2018-06-09T11:29:05.544Z,14.20
2018-06-09T11:31:35.191Z,15.03
2018-06-09T11:34:04.904Z,16.87
2018-06-09T11:36:34.479Z,13.80
2018-06-09T11:39:04.734Z,13.70
2018-06-09T11:41:34.367Z,15.33
2018-06-09T11:44:04.219Z,13.90
2018-06-09T11:46:33.865Z,14.50
2018-06-09T11:49:03.493Z,13.07
2018-06-09T11:51:33.070Z,13.53
2018-06-09T11:54:02.687Z,13.30
2018-06-09T11:56:32.340Z,12.67
2018-06-09T11:59:02.015Z,13.77
2018-06-09T12:01:31.630Z,12.20
2018-06-09T12:04:01.267Z,12.20
2018-06-09T12:06:30.888Z,11.93
2018-06-09T12:09:00.745Z,13.83
2018-06-09T12:11:30.373Z,13.67
2018-06-09T12:13:59.955Z,12.93
2018-06-09T12:16:29.526Z,15.03
2018-06-09T12:18:58.936Z,12.73
2018-06-09T12:21:28.482Z,12.03
2018-06-09T12:23:58.245Z,12.50
2018-06-09T12:26:27.870Z,13.47
2018-06-09T12:28:57.625Z,11.07
2018-06-09T12:31:27.228Z,12.43
2018-06-09T12:33:58.314Z,11.17
2018-06-09T12:36:27.934Z,9.80
2018-06-09T12:38:57.529Z,10.73
2018-06-09T12:41:27.165Z,10.33
2018-06-09T12:43:57.323Z,14.13
2018-06-09T12:46:27.011Z,14.97
2018-06-09T12:48:57.177Z,10.83
2018-06-09T12:51:26.823Z,11.70
2018-06-09T12:53:56.984Z,11.83
2018-06-09T12:56:26.673Z,11.93
2018-06-09T12:58:56.682Z,12.53
2018-06-09T13:01:26.446Z,13.27
2018-06-09T13:03:56.404Z,11.97
2018-06-09T13:06:26.033Z,12.13
2018-06-09T13:08:55.838Z,11.90
2018-06-09T13:11:25.445Z,10.77
2018-06-09T13:13:55.118Z,9.47
2018-06-09T13:16:24.841Z,12.13
2018-06-09T13:18:54.404Z,10.97
2018-06-09T13:21:24.117Z,12.77
2018-06-09T13:23:53.804Z,10.77
2018-06-09T13:26:23.475Z,10.10
2018-06-09T13:28:53.090Z,9.73
2018-06-09T13:31:22.747Z,10.27
2018-06-09T13:33:52.392Z,11.53
2018-06-09T13:36:22.035Z,9.33
2018-06-09T13:38:51.678Z,11.53
2018-06-09T13:41:21.282Z,12.77
2018-06-09T13:43:50.788Z,14.10
2018-06-09T13:46:20.400Z,9.93
2018-06-09T13:48:49.899Z,12.37
2018-06-09T13:51:19.502Z,8.73
2018-06-09T13:53:49.111Z,8.60
2018-06-09T13:56:18.681Z,11.60
2018-06-09T13:58:48.354Z,8.47
2018-06-09T14:01:17.943Z,9.90
2018-06-09T14:03:47.644Z,9.57
2018-06-09T14:06:17.248Z,9.47
2018-06-09T14:08:46.860Z,10.93
2018-06-09T14:11:16.517Z,10.17
2018-06-09T14:13:46.147Z,8.93
2018-06-09T14:16:15.440Z,8.30
2018-06-09T14:18:45.040Z,9.03
2018-06-09T14:21:14.667Z,9.20
2018-06-09T14:23:44.373Z,8.77
2018-06-09T14:26:13.963Z,8.23
2018-06-09T14:28:43.530Z,9.57
2018-06-09T14:31:13.172Z,9.43
2018-06-09T14:33:42.908Z,8.60
2018-06-09T14:36:12.477Z,10.77
2018-06-09T14:38:42.114Z,8.33
2018-06-09T14:41:11.748Z,9.30
2018-06-09T14:43:41.386Z,8.93
2018-06-09T14:46:11.025Z,11.57
2018-06-09T14:48:40.599Z,8.80
2018-06-09T14:51:10.205Z,8.63
2018-06-09T14:53:39.873Z,10.00
2018-06-09T14:56:09.126Z,11.43
2018-06-09T14:58:38.768Z,8.93
2018-06-09T15:01:08.802Z,11.60
2018-06-09T15:03:38.431Z,11.70
2018-06-09T15:06:08.304Z,12.03
2018-06-09T15:08:37.998Z,9.33
2018-06-09T15:11:08.133Z,11.73
2018-06-09T15:13:37.696Z,8.33
2018-06-09T15:16:07.428Z,7.97
2018-06-09T15:18:37.019Z,8.57
2018-06-09T15:21:06.666Z,9.30
2018-06-09T15:23:36.292Z,8.63
2018-06-09T15:26:06.012Z,10.37
2018-06-09T15:28:35.644Z,8.63
2018-06-09T15:31:05.540Z,8.07
2018-06-09T15:33:35.177Z,11.87
2018-06-09T15:36:05.961Z,8.20
2018-06-09T15:38:35.554Z,9.83
2018-06-09T15:41:05.167Z,7.07
2018-06-09T15:43:34.770Z,7.90
2018-06-09T15:46:04.499Z,9.17
2018-06-09T15:48:34.116Z,7.53
2018-06-09T15:51:03.752Z,8.70
2018-06-09T15:53:33.327Z,8.73
2018-06-09T15:56:03.040Z,7.27
2018-06-09T15:58:33.598Z,9.30
2018-06-09T16:01:03.325Z,8.57
2018-06-09T16:03:33.036Z,9.33
2018-06-09T16:06:02.757Z,8.17
2018-06-09T16:08:32.339Z,8.80
2018-06-09T16:11:02.184Z,8.30
2018-06-09T16:13:32.012Z,7.90
2018-06-09T16:16:01.705Z,9.10
2018-06-09T16:18:31.278Z,8.57
2018-06-09T16:21:00.995Z,7.30
2018-06-09T16:23:30.668Z,7.40
2018-06-09T16:26:00.294Z,8.23
2018-06-09T16:28:29.928Z,7.30
2018-06-09T16:30:59.622Z,7.53
2018-06-09T16:33:29.209Z,7.93
2018-06-09T16:35:58.736Z,7.83
2018-06-09T16:38:28.498Z,7.47
2018-06-09T16:41:04.428Z,7.57
2018-06-09T16:43:34.035Z,7.87
2018-06-09T16:46:03.694Z,7.80
2018-06-09T16:48:34.220Z,8.13
2018-06-09T16:51:03.800Z,8.23
2018-06-09T16:53:33.341Z,8.33
2018-06-09T16:56:02.993Z,10.33
2018-06-09T16:58:32.617Z,10.03
2018-06-09T17:01:02.262Z,10.00
2018-06-09T17:03:32.365Z,11.63
2018-06-09T17:06:01.715Z,8.33
2018-06-09T17:08:31.417Z,8.20
2018-06-09T17:11:01.087Z,10.43
2018-06-09T17:13:30.641Z,10.13
2018-06-09T17:16:00.198Z,8.93
2018-06-09T17:18:29.947Z,8.03
2018-06-09T17:20:59.564Z,8.17
2018-06-09T17:23:29.308Z,8.27
2018-06-09T17:25:58.922Z,8.33
2018-06-09T17:28:28.684Z,8.10
2018-06-09T17:30:58.250Z,7.90
2018-06-09T17:33:27.916Z,11.53
2018-06-09T17:35:57.496Z,9.47
2018-06-09T17:38:27.160Z,8.43
2018-06-09T17:40:56.730Z,8.57
2018-06-09T17:43:26.339Z,10.03
2018-06-09T17:45:56.022Z,10.13
2018-06-09T17:48:25.877Z,11.40
2018-06-09T17:50:55.580Z,9.67
2018-06-09T17:53:25.157Z,9.50
2018-06-09T17:55:54.815Z,13.20
2018-06-09T17:58:24.460Z,16.73
2018-06-09T18:00:54.176Z,10.13
2018-06-09T18:03:23.774Z,11.13
2018-06-09T18:05:53.378Z,14.80
2018-06-09T18:08:23.268Z,11.10
2018-06-09T18:10:53.082Z,12.97
2018-06-09T18:13:23.268Z,10.87
2018-06-09T18:15:52.876Z,10.23
2018-06-09T18:18:22.986Z,11.27
2018-06-09T18:20:52.572Z,9.40
2018-06-09T18:23:26.602Z,9.87
2018-06-09T18:25:56.179Z,9.57
2018-06-09T18:28:25.784Z,13.27
2018-06-09T18:30:55.400Z,18.47
2018-06-09T18:33:25.329Z,13.43
2018-06-09T18:35:54.885Z,11.53
2018-06-09T18:38:24.859Z,10.77
2018-06-09T18:40:54.598Z,10.73
2018-06-09T18:43:24.349Z,10.17
2018-06-09T18:45:54.121Z,9.23
2018-06-09T18:48:23.934Z,10.07
2018-06-09T18:50:53.534Z,11.67
2018-06-09T18:53:23.522Z,10.80
2018-06-09T18:55:53.177Z,13.10
2018-06-09T18:58:22.837Z,10.90
2018-06-09T19:00:52.691Z,14.23
2018-06-09T19:03:22.399Z,10.17
2018-06-09T19:05:52.653Z,14.07
2018-06-09T19:08:22.247Z,11.17
2018-06-09T19:10:51.937Z,12.47
2018-06-09T19:13:21.631Z,10.67
2018-06-09T19:15:50.932Z,13.63
2018-06-09T19:18:20.499Z,11.63
2018-06-09T19:20:50.105Z,11.00
2018-06-09T19:23:19.837Z,12.83
2018-06-09T19:25:49.421Z,13.20
2018-06-09T19:28:19.236Z,11.50
2018-06-09T19:30:48.886Z,10.53
2018-06-09T19:33:18.527Z,10.83
2018-06-09T19:35:48.371Z,10.30
2018-06-09T19:38:18.074Z,11.13
2018-06-09T19:40:48.009Z,10.70
2018-06-09T19:43:17.694Z,13.83
2018-06-09T19:45:47.327Z,9.13
2018-06-09T19:48:16.974Z,10.80
2018-06-09T19:50:46.736Z,10.53
2018-06-09T19:53:16.386Z,10.57
2018-06-09T19:55:46.094Z,11.50
2018-06-09T19:58:15.861Z,9.83
2018-06-09T20:00:45.999Z,13.03
2018-06-09T20:03:15.727Z,18.80
2018-06-09T20:05:45.426Z,13.87
2018-06-09T20:08:15.115Z,13.80
2018-06-09T20:10:44.708Z,11.70
2018-06-09T20:13:14.304Z,14.57
2018-06-09T20:15:43.892Z,14.23
2018-06-09T20:18:13.553Z,13.37
2018-06-09T20:20:43.265Z,11.03
2018-06-09T20:23:12.916Z,9.53
2018-06-09T20:25:42.623Z,9.70
2018-06-09T20:28:12.295Z,9.13
2018-06-09T20:30:42.036Z,9.33
2018-06-09T20:33:11.707Z,11.03
2018-06-09T20:35:41.532Z,9.80
2018-06-09T20:38:11.188Z,10.80
2018-06-09T20:40:40.932Z,9.93
2018-06-09T20:43:10.703Z,11.10
2018-06-09T20:45:40.578Z,10.07
2018-06-09T20:48:10.327Z,11.10
2018-06-09T20:50:40.076Z,10.47
2018-06-09T20:53:09.760Z,10.03
2018-06-09T20:55:39.671Z,8.87
2018-06-09T20:58:09.480Z,9.23
2018-06-09T21:00:39.151Z,10.00
2018-06-09T21:03:08.856Z,11.50
2018-06-09T21:05:38.587Z,10.97
2018-06-09T21:08:08.244Z,11.40
2018-06-09T21:10:37.890Z,12.57
2018-06-09T21:13:07.955Z,11.13
2018-06-09T21:15:37.615Z,11.40
2018-06-09T21:18:07.325Z,10.23
2018-06-09T21:20:37.097Z,11.10
2018-06-09T21:23:06.795Z,11.37
2018-06-09T21:25:36.736Z,13.33
2018-06-09T21:28:13.221Z,10.20
2018-06-09T21:30:43.673Z,13.27
2018-06-09T21:34:32.760Z,14.73
2018-06-09T21:37:13.781Z,10.80
2018-06-09T21:39:48.721Z,12.53
2018-06-09T21:42:24.009Z,12.30
2018-06-09T21:44:59.068Z,15.10
2018-06-09T21:47:33.385Z,13.40
2018-06-09T21:50:03.330Z,12.93
2018-06-09T21:52:32.960Z,16.70
2018-06-09T21:55:02.568Z,14.13
2018-06-09T21:57:32.937Z,14.20
2018-06-09T22:00:02.585Z,15.97
2018-06-09T22:02:32.377Z,17.13
2018-06-09T22:05:02.049Z,17.33
2018-06-09T22:07:31.678Z,18.27
2018-06-09T22:10:01.417Z,18.03
2018-06-09T22:12:31.161Z,20.07
2018-06-09T22:15:00.727Z,20.53
2018-06-09T22:17:30.465Z,20.10
2018-06-09T22:20:00.103Z,20.73
2018-06-09T22:22:29.918Z,19.67
2018-06-09T22:24:59.834Z,21.97
2018-06-09T22:27:29.805Z,20.47
2018-06-09T22:29:59.787Z,22.00
2018-06-09T22:32:31.238Z,21.20
2018-06-09T22:35:01.041Z,23.40
2018-06-09T22:37:30.798Z,25.53
2018-06-09T22:40:00.436Z,23.33
2018-06-09T22:42:30.096Z,26.83
2018-06-09T22:44:59.800Z,21.70
2018-06-09T22:47:29.528Z,22.13
2018-06-09T22:49:59.178Z,22.33
2018-06-09T22:52:28.879Z,22.03
2018-06-09T22:54:58.790Z,22.73
2018-06-09T22:57:28.453Z,22.13
2018-06-09T22:59:58.454Z,23.00
2018-06-09T23:02:28.141Z,23.37
2018-06-09T23:04:57.856Z,20.20
2018-06-09T23:07:27.458Z,21.10
2018-06-09T23:09:57.149Z,21.50
2018-06-09T23:12:26.655Z,22.47
2018-06-09T23:14:56.288Z,21.93
2018-06-09T23:17:25.984Z,21.27
2018-06-09T23:19:55.580Z,22.60
2018-06-09T23:22:25.266Z,21.90
2018-06-09T23:24:54.860Z,23.37
2018-06-09T23:27:24.507Z,20.97
2018-06-09T23:29:56.263Z,19.57
2018-06-09T23:32:28.064Z,19.83
2018-06-09T23:34:57.717Z,20.33
2018-06-09T23:37:27.445Z,21.13
2018-06-09T23:39:57.015Z,19.33
2018-06-09T23:42:26.688Z,19.63
2018-06-09T23:44:56.601Z,20.37
2018-06-09T23:47:26.392Z,21.90
2018-06-09T23:49:56.097Z,23.03
2018-06-09T23:52:25.817Z,22.37
2018-06-09T23:54:55.582Z,22.57
2018-06-09T23:57:25.237Z,23.43
2018-06-09T23:59:54.976Z,24.77
